« Back
NWS Peachtree City, Ga » Text Product » MCN Terminal Aerodrome Forecast


Printer-friendly Version
Current Version              Previous Versions:   1  2  3  4  5  6  7  8  9  

Terminal Aerodrome Forecast

138
FTUS42 KFFC 010000 AAA
TAFMCN
TAF AMD
KMCN 010026Z 0100/0124 VRB04KT P6SM VCTS SCT060CB SCT150
      TEMPO 0100/0102 VRB15G25KT 5SM TSRA BKN045CB
     FM010200 00000KT P6SM FEW060 FEW150
     FM011400 VRB03KT P6SM SCT030 SCT150
     FM011800 VRB05KT P6SM SCT050 SCT150=

USA.gov is the U.S. government's official web portal to all federal, state and local government web resources and services.